<?xml version="1.0" encoding="UTF-8" standalone="no" ?>
<gpx xmlns="http://www.topografix.com/GPX/1/1" xmlns:xsi="http://www.w3.org/2001/XMLSchema-instance" xsi:schemaLocation="http://www.topografix.com/GPX/1/1 http://www.topografix.com/GPX/1/1/gpx.xsd" version="1.1" creator="VisuGPX - https://www.visugpx.com">
  <metadata>
    <name>La tête du bois</name>
  </metadata>
  <trk>
    <name><![CDATA[la tête du bois 24km x 1000m]]></name>
    <extensions>
      <line xmlns="http://www.topografix.com/GPX/gpx_style/0/2">
        <width>4</width>
      </line>
    </extensions>
    <trkseg>
      <trkpt lat="45.30624" lon="4.11476">
        <ele>442.9</ele>
        <time>2026-02-26T09:46:51.397Z</time>
      </trkpt>
      <trkpt lat="45.30578" lon="4.1142">
        <ele>443.1</ele>
        <time>2026-02-26T09:46:58.074Z</time>
      </trkpt>
      <trkpt lat="45.30727" lon="4.11322">
        <ele>447</ele>
        <time>2026-02-26T09:47:16.340Z</time>
      </trkpt>
      <trkpt lat="45.30825" lon="4.1128">
        <ele>450.5</ele>
        <time>2026-02-26T09:47:27.734Z</time>
      </trkpt>
      <trkpt lat="45.30833" lon="4.11164">
        <ele>453.2</ele>
        <time>2026-02-26T09:47:36.831Z</time>
      </trkpt>
      <trkpt lat="45.30846" lon="4.11099">
        <ele>455.3</ele>
        <time>2026-02-26T09:47:42.110Z</time>
      </trkpt>
      <trkpt lat="45.30899" lon="4.11118">
        <ele>455.8</ele>
        <time>2026-02-26T09:47:48.130Z</time>
      </trkpt>
      <trkpt lat="45.30963" lon="4.11029">
        <ele>459.4</ele>
        <time>2026-02-26T09:47:58.097Z</time>
      </trkpt>
      <trkpt lat="45.30995" lon="4.10969">
        <ele>462.2</ele>
        <time>2026-02-26T09:48:03.998Z</time>
      </trkpt>
      <trkpt lat="45.31006" lon="4.10924">
        <ele>463.8</ele>
        <time>2026-02-26T09:48:07.737Z</time>
      </trkpt>
      <trkpt lat="45.31098" lon="4.10935">
        <ele>466.2</ele>
        <time>2026-02-26T09:48:18.029Z</time>
      </trkpt>
      <trkpt lat="45.31127" lon="4.1093">
        <ele>467.3</ele>
        <time>2026-02-26T09:48:21.285Z</time>
      </trkpt>
      <trkpt lat="45.31156" lon="4.10906">
        <ele>470.6</ele>
        <time>2026-02-26T09:48:24.997Z</time>
      </trkpt>
      <trkpt lat="45.31182" lon="4.10896">
        <ele>473.1</ele>
        <time>2026-02-26T09:48:27.979Z</time>
      </trkpt>
      <trkpt lat="45.31161" lon="4.10862">
        <ele>475</ele>
        <time>2026-02-26T09:48:31.571Z</time>
      </trkpt>
      <trkpt lat="45.31251" lon="4.10741">
        <ele>488.8</ele>
        <time>2026-02-26T09:48:45.470Z</time>
      </trkpt>
      <trkpt lat="45.3133" lon="4.10649">
        <ele>495</ele>
        <time>2026-02-26T09:48:56.865Z</time>
      </trkpt>
      <trkpt lat="45.31401" lon="4.10539">
        <ele>502.7</ele>
        <time>2026-02-26T09:49:08.555Z</time>
      </trkpt>
      <trkpt lat="45.31442" lon="4.10496">
        <ele>508.8</ele>
        <time>2026-02-26T09:49:14.258Z</time>
      </trkpt>
      <trkpt lat="45.31427" lon="4.10457">
        <ele>509.3</ele>
        <time>2026-02-26T09:49:17.824Z</time>
      </trkpt>
      <trkpt lat="45.31307" lon="4.10451">
        <ele>509.8</ele>
        <time>2026-02-26T09:49:31.312Z</time>
      </trkpt>
      <trkpt lat="45.3127" lon="4.1043">
        <ele>515.4</ele>
        <time>2026-02-26T09:49:35.800Z</time>
      </trkpt>
      <trkpt lat="45.31195" lon="4.10441">
        <ele>515.1</ele>
        <time>2026-02-26T09:49:44.265Z</time>
      </trkpt>
      <trkpt lat="45.31123" lon="4.10418">
        <ele>514.3</ele>
        <time>2026-02-26T09:49:52.464Z</time>
      </trkpt>
      <trkpt lat="45.31077" lon="4.1039">
        <ele>519</ele>
        <time>2026-02-26T09:49:57.999Z</time>
      </trkpt>
      <trkpt lat="45.31051" lon="4.10322">
        <ele>532.7</ele>
        <time>2026-02-26T09:50:04.066Z</time>
      </trkpt>
      <trkpt lat="45.30964" lon="4.10265">
        <ele>530.1</ele>
        <time>2026-02-26T09:50:14.744Z</time>
      </trkpt>
      <trkpt lat="45.30881" lon="4.10219">
        <ele>529.7</ele>
        <time>2026-02-26T09:50:24.666Z</time>
      </trkpt>
      <trkpt lat="45.30943" lon="4.10175">
        <ele>548.8</ele>
        <time>2026-02-26T09:50:32.661Z</time>
      </trkpt>
      <trkpt lat="45.30951" lon="4.10115">
        <ele>563.1</ele>
        <time>2026-02-26T09:50:37.708Z</time>
      </trkpt>
      <trkpt lat="45.3101" lon="4.10129">
        <ele>570.9</ele>
        <time>2026-02-26T09:50:44.395Z</time>
      </trkpt>
      <trkpt lat="45.31057" lon="4.10146">
        <ele>578.8</ele>
        <time>2026-02-26T09:50:49.811Z</time>
      </trkpt>
      <trkpt lat="45.31096" lon="4.10129">
        <ele>595.2</ele>
        <time>2026-02-26T09:50:54.619Z</time>
      </trkpt>
      <trkpt lat="45.31141" lon="4.10121">
        <ele>604.6</ele>
        <time>2026-02-26T09:50:59.918Z</time>
      </trkpt>
      <trkpt lat="45.31185" lon="4.101">
        <ele>613.3</ele>
        <time>2026-02-26T09:51:05.278Z</time>
      </trkpt>
      <trkpt lat="45.31246" lon="4.10202">
        <ele>573.5</ele>
        <time>2026-02-26T09:51:15.994Z</time>
      </trkpt>
      <trkpt lat="45.31294" lon="4.10202">
        <ele>561.9</ele>
        <time>2026-02-26T09:51:21.675Z</time>
      </trkpt>
      <trkpt lat="45.31329" lon="4.10175">
        <ele>560</ele>
        <time>2026-02-26T09:51:26.258Z</time>
      </trkpt>
      <trkpt lat="45.31346" lon="4.10114">
        <ele>570.7</ele>
        <time>2026-02-26T09:51:31.596Z</time>
      </trkpt>
      <trkpt lat="45.31387" lon="4.10043">
        <ele>589.8</ele>
        <time>2026-02-26T09:51:38.910Z</time>
      </trkpt>
      <trkpt lat="45.31407" lon="4.09979">
        <ele>610.4</ele>
        <time>2026-02-26T09:51:44.492Z</time>
      </trkpt>
      <trkpt lat="45.31423" lon="4.09934">
        <ele>624</ele>
        <time>2026-02-26T09:51:48.360Z</time>
      </trkpt>
      <trkpt lat="45.31468" lon="4.09889">
        <ele>625.5</ele>
        <time>2026-02-26T09:51:54.696Z</time>
      </trkpt>
      <trkpt lat="45.3152" lon="4.09854">
        <ele>616.2</ele>
        <time>2026-02-26T09:52:01.070Z</time>
      </trkpt>
      <trkpt lat="45.31573" lon="4.09808">
        <ele>610.2</ele>
        <time>2026-02-26T09:52:08.015Z</time>
      </trkpt>
      <trkpt lat="45.3161" lon="4.0979">
        <ele>603</ele>
        <time>2026-02-26T09:52:12.355Z</time>
      </trkpt>
      <trkpt lat="45.3167" lon="4.09834">
        <ele>604.2</ele>
        <time>2026-02-26T09:52:20.459Z</time>
      </trkpt>
      <trkpt lat="45.31704" lon="4.09814">
        <ele>612.9</ele>
        <time>2026-02-26T09:52:24.571Z</time>
      </trkpt>
      <trkpt lat="45.31789" lon="4.09788">
        <ele>641.1</ele>
        <time>2026-02-26T09:52:34.224Z</time>
      </trkpt>
      <trkpt lat="45.31817" lon="4.09767">
        <ele>642.6</ele>
        <time>2026-02-26T09:52:37.679Z</time>
      </trkpt>
      <trkpt lat="45.31851" lon="4.09712">
        <ele>636.2</ele>
        <time>2026-02-26T09:52:43.487Z</time>
      </trkpt>
      <trkpt lat="45.31927" lon="4.09706">
        <ele>659.9</ele>
        <time>2026-02-26T09:52:51.964Z</time>
      </trkpt>
      <trkpt lat="45.31978" lon="4.09704">
        <ele>679.6</ele>
        <time>2026-02-26T09:52:57.751Z</time>
      </trkpt>
      <trkpt lat="45.32033" lon="4.09636">
        <ele>686.7</ele>
        <time>2026-02-26T09:53:05.961Z</time>
      </trkpt>
      <trkpt lat="45.32086" lon="4.09569">
        <ele>692.8</ele>
        <time>2026-02-26T09:53:13.936Z</time>
      </trkpt>
      <trkpt lat="45.32132" lon="4.09533">
        <ele>703</ele>
        <time>2026-02-26T09:53:19.900Z</time>
      </trkpt>
      <trkpt lat="45.32157" lon="4.09499">
        <ele>704.9</ele>
        <time>2026-02-26T09:53:23.809Z</time>
      </trkpt>
      <trkpt lat="45.32167" lon="4.09462">
        <ele>703.9</ele>
        <time>2026-02-26T09:53:26.928Z</time>
      </trkpt>
      <trkpt lat="45.32204" lon="4.09453">
        <ele>709.6</ele>
        <time>2026-02-26T09:53:31.221Z</time>
      </trkpt>
      <trkpt lat="45.32257" lon="4.09361">
        <ele>702.7</ele>
        <time>2026-02-26T09:53:40.591Z</time>
      </trkpt>
      <trkpt lat="45.32278" lon="4.09357">
        <ele>701.4</ele>
        <time>2026-02-26T09:53:42.879Z</time>
      </trkpt>
      <trkpt lat="45.32307" lon="4.09304">
        <ele>694.5</ele>
        <time>2026-02-26T09:53:48.153Z</time>
      </trkpt>
      <trkpt lat="45.32343" lon="4.09124">
        <ele>674.7</ele>
        <time>2026-02-26T09:54:02.769Z</time>
      </trkpt>
      <trkpt lat="45.32362" lon="4.09019">
        <ele>674.2</ele>
        <time>2026-02-26T09:54:11.321Z</time>
      </trkpt>
      <trkpt lat="45.32373" lon="4.08917">
        <ele>687.3</ele>
        <time>2026-02-26T09:54:19.508Z</time>
      </trkpt>
      <trkpt lat="45.32379" lon="4.08816">
        <ele>706.2</ele>
        <time>2026-02-26T09:54:27.530Z</time>
      </trkpt>
      <trkpt lat="45.32378" lon="4.08728">
        <ele>717.7</ele>
        <time>2026-02-26T09:54:34.505Z</time>
      </trkpt>
      <trkpt lat="45.32363" lon="4.08654">
        <ele>729</ele>
        <time>2026-02-26T09:54:40.540Z</time>
      </trkpt>
      <trkpt lat="45.32353" lon="4.08607">
        <ele>735.7</ele>
        <time>2026-02-26T09:54:44.410Z</time>
      </trkpt>
      <trkpt lat="45.32301" lon="4.08496">
        <ele>753.9</ele>
        <time>2026-02-26T09:54:55.008Z</time>
      </trkpt>
      <trkpt lat="45.32271" lon="4.0842">
        <ele>765.6</ele>
        <time>2026-02-26T09:55:01.908Z</time>
      </trkpt>
      <trkpt lat="45.32256" lon="4.08332">
        <ele>774.9</ele>
        <time>2026-02-26T09:55:09.050Z</time>
      </trkpt>
      <trkpt lat="45.32254" lon="4.08267">
        <ele>777.6</ele>
        <time>2026-02-26T09:55:14.115Z</time>
      </trkpt>
      <trkpt lat="45.32251" lon="4.08214">
        <ele>777.6</ele>
        <time>2026-02-26T09:55:18.287Z</time>
      </trkpt>
      <trkpt lat="45.32265" lon="4.08133">
        <ele>773</ele>
        <time>2026-02-26T09:55:24.815Z</time>
      </trkpt>
      <trkpt lat="45.3225" lon="4.08024">
        <ele>779.3</ele>
        <time>2026-02-26T09:55:33.615Z</time>
      </trkpt>
      <trkpt lat="45.32259" lon="4.07943">
        <ele>784.6</ele>
        <time>2026-02-26T09:55:39.998Z</time>
      </trkpt>
      <trkpt lat="45.32266" lon="4.07869">
        <ele>793.9</ele>
        <time>2026-02-26T09:55:45.886Z</time>
      </trkpt>
      <trkpt lat="45.3221" lon="4.07845">
        <ele>802.5</ele>
        <time>2026-02-26T09:55:52.415Z</time>
      </trkpt>
      <trkpt lat="45.32162" lon="4.07823">
        <ele>805.8</ele>
        <time>2026-02-26T09:55:58.001Z</time>
      </trkpt>
      <trkpt lat="45.32102" lon="4.0783">
        <ele>805.6</ele>
        <time>2026-02-26T09:56:04.659Z</time>
      </trkpt>
      <trkpt lat="45.32037" lon="4.0786">
        <ele>798.9</ele>
        <time>2026-02-26T09:56:12.244Z</time>
      </trkpt>
      <trkpt lat="45.32017" lon="4.07933">
        <ele>790.8</ele>
        <time>2026-02-26T09:56:18.481Z</time>
      </trkpt>
      <trkpt lat="45.3201" lon="4.07968">
        <ele>786.5</ele>
        <time>2026-02-26T09:56:21.352Z</time>
      </trkpt>
      <trkpt lat="45.31982" lon="4.08004">
        <ele>780.8</ele>
        <time>2026-02-26T09:56:25.490Z</time>
      </trkpt>
      <trkpt lat="45.31972" lon="4.08108">
        <ele>770.6</ele>
        <time>2026-02-26T09:56:33.784Z</time>
      </trkpt>
      <trkpt lat="45.3194" lon="4.08157">
        <ele>764</ele>
        <time>2026-02-26T09:56:38.991Z</time>
      </trkpt>
      <trkpt lat="45.31912" lon="4.08164">
        <ele>764.7</ele>
        <time>2026-02-26T09:56:42.140Z</time>
      </trkpt>
      <trkpt lat="45.31874" lon="4.08158">
        <ele>767.5</ele>
        <time>2026-02-26T09:56:46.400Z</time>
      </trkpt>
      <trkpt lat="45.31819" lon="4.08171">
        <ele>767.2</ele>
        <time>2026-02-26T09:56:52.626Z</time>
      </trkpt>
      <trkpt lat="45.31792" lon="4.08231">
        <ele>761.4</ele>
        <time>2026-02-26T09:56:58.258Z</time>
      </trkpt>
      <trkpt lat="45.3179" lon="4.08334">
        <ele>759.2</ele>
        <time>2026-02-26T09:57:06.372Z</time>
      </trkpt>
      <trkpt lat="45.31808" lon="4.08453">
        <ele>759.9</ele>
        <time>2026-02-26T09:57:15.875Z</time>
      </trkpt>
      <trkpt lat="45.31791" lon="4.08568">
        <ele>751.3</ele>
        <time>2026-02-26T09:57:25.045Z</time>
      </trkpt>
      <trkpt lat="45.31772" lon="4.08672">
        <ele>751.7</ele>
        <time>2026-02-26T09:57:33.480Z</time>
      </trkpt>
      <trkpt lat="45.31776" lon="4.08757">
        <ele>750.7</ele>
        <time>2026-02-26T09:57:40.154Z</time>
      </trkpt>
      <trkpt lat="45.3178" lon="4.08853">
        <ele>745.9</ele>
        <time>2026-02-26T09:57:47.631Z</time>
      </trkpt>
      <trkpt lat="45.31732" lon="4.08892">
        <ele>753</ele>
        <time>2026-02-26T09:57:53.786Z</time>
      </trkpt>
      <trkpt lat="45.31726" lon="4.08851">
        <ele>755.4</ele>
        <time>2026-02-26T09:57:57.022Z</time>
      </trkpt>
      <trkpt lat="45.31722" lon="4.08759">
        <ele>761.7</ele>
        <time>2026-02-26T09:58:04.243Z</time>
      </trkpt>
      <trkpt lat="45.31668" lon="4.08706">
        <ele>769.7</ele>
        <time>2026-02-26T09:58:11.614Z</time>
      </trkpt>
      <trkpt lat="45.31621" lon="4.08778">
        <ele>771.1</ele>
        <time>2026-02-26T09:58:19.370Z</time>
      </trkpt>
      <trkpt lat="45.31582" lon="4.08815">
        <ele>771.9</ele>
        <time>2026-02-26T09:58:24.485Z</time>
      </trkpt>
      <trkpt lat="45.31539" lon="4.08907">
        <ele>764.8</ele>
        <time>2026-02-26T09:58:33.117Z</time>
      </trkpt>
      <trkpt lat="45.31499" lon="4.08923">
        <ele>765.2</ele>
        <time>2026-02-26T09:58:37.758Z</time>
      </trkpt>
      <trkpt lat="45.31453" lon="4.09034">
        <ele>755.6</ele>
        <time>2026-02-26T09:58:47.874Z</time>
      </trkpt>
      <trkpt lat="45.31413" lon="4.09126">
        <ele>751.5</ele>
        <time>2026-02-26T09:58:56.367Z</time>
      </trkpt>
      <trkpt lat="45.31387" lon="4.09176">
        <ele>744.8</ele>
        <time>2026-02-26T09:59:01.277Z</time>
      </trkpt>
      <trkpt lat="45.31354" lon="4.09194">
        <ele>743.7</ele>
        <time>2026-02-26T09:59:05.126Z</time>
      </trkpt>
      <trkpt lat="45.31319" lon="4.09123">
        <ele>758.4</ele>
        <time>2026-02-26T09:59:11.932Z</time>
      </trkpt>
      <trkpt lat="45.31306" lon="4.08987">
        <ele>772.1</ele>
        <time>2026-02-26T09:59:22.702Z</time>
      </trkpt>
      <trkpt lat="45.31321" lon="4.08897">
        <ele>774.6</ele>
        <time>2026-02-26T09:59:29.903Z</time>
      </trkpt>
      <trkpt lat="45.31302" lon="4.08873">
        <ele>773.9</ele>
        <time>2026-02-26T09:59:32.702Z</time>
      </trkpt>
      <trkpt lat="45.31195" lon="4.08893">
        <ele>759.7</ele>
        <time>2026-02-26T09:59:44.818Z</time>
      </trkpt>
      <trkpt lat="45.31174" lon="4.08853">
        <ele>753.5</ele>
        <time>2026-02-26T09:59:48.724Z</time>
      </trkpt>
      <trkpt lat="45.31185" lon="4.08793">
        <ele>757</ele>
        <time>2026-02-26T09:59:53.654Z</time>
      </trkpt>
      <trkpt lat="45.31142" lon="4.0874">
        <ele>763.5</ele>
        <time>2026-02-26T09:59:59.924Z</time>
      </trkpt>
      <trkpt lat="45.31117" lon="4.08692">
        <ele>770.5</ele>
        <time>2026-02-26T10:00:04.640Z</time>
      </trkpt>
      <trkpt lat="45.31082" lon="4.08579">
        <ele>773.2</ele>
        <time>2026-02-26T10:00:14.352Z</time>
      </trkpt>
      <trkpt lat="45.31063" lon="4.08525">
        <ele>767.8</ele>
        <time>2026-02-26T10:00:19.065Z</time>
      </trkpt>
      <trkpt lat="45.3104" lon="4.0849">
        <ele>760.3</ele>
        <time>2026-02-26T10:00:22.896Z</time>
      </trkpt>
      <trkpt lat="45.31037" lon="4.08433">
        <ele>757.9</ele>
        <time>2026-02-26T10:00:27.318Z</time>
      </trkpt>
      <trkpt lat="45.30989" lon="4.08426">
        <ele>750.5</ele>
        <time>2026-02-26T10:00:32.721Z</time>
      </trkpt>
      <trkpt lat="45.30949" lon="4.08491">
        <ele>741.3</ele>
        <time>2026-02-26T10:00:39.522Z</time>
      </trkpt>
      <trkpt lat="45.30916" lon="4.08553">
        <ele>734.7</ele>
        <time>2026-02-26T10:00:45.602Z</time>
      </trkpt>
      <trkpt lat="45.30878" lon="4.08551">
        <ele>729.6</ele>
        <time>2026-02-26T10:00:49.862Z</time>
      </trkpt>
      <trkpt lat="45.30827" lon="4.08681">
        <ele>718.8</ele>
        <time>2026-02-26T10:01:01.438Z</time>
      </trkpt>
      <trkpt lat="45.308" lon="4.08744">
        <ele>710.5</ele>
        <time>2026-02-26T10:01:07.278Z</time>
      </trkpt>
      <trkpt lat="45.30762" lon="4.08784">
        <ele>706.8</ele>
        <time>2026-02-26T10:01:12.541Z</time>
      </trkpt>
      <trkpt lat="45.30684" lon="4.08801">
        <ele>718.6</ele>
        <time>2026-02-26T10:01:21.306Z</time>
      </trkpt>
      <trkpt lat="45.30577" lon="4.08821">
        <ele>734.6</ele>
        <time>2026-02-26T10:01:33.397Z</time>
      </trkpt>
      <trkpt lat="45.30497" lon="4.0887">
        <ele>734.1</ele>
        <time>2026-02-26T10:01:43.091Z</time>
      </trkpt>
      <trkpt lat="45.30403" lon="4.08943">
        <ele>715.7</ele>
        <time>2026-02-26T10:01:55.060Z</time>
      </trkpt>
      <trkpt lat="45.30365" lon="4.09078">
        <ele>689.3</ele>
        <time>2026-02-26T10:02:06.597Z</time>
      </trkpt>
      <trkpt lat="45.30342" lon="4.09143">
        <ele>677</ele>
        <time>2026-02-26T10:02:12.425Z</time>
      </trkpt>
      <trkpt lat="45.30294" lon="4.09135">
        <ele>673.2</ele>
        <time>2026-02-26T10:02:17.866Z</time>
      </trkpt>
      <trkpt lat="45.30192" lon="4.09089">
        <ele>686.2</ele>
        <time>2026-02-26T10:02:29.709Z</time>
      </trkpt>
      <trkpt lat="45.30128" lon="4.09001">
        <ele>686.3</ele>
        <time>2026-02-26T10:02:39.728Z</time>
      </trkpt>
      <trkpt lat="45.30008" lon="4.09051">
        <ele>659.2</ele>
        <time>2026-02-26T10:02:53.734Z</time>
      </trkpt>
      <trkpt lat="45.30002" lon="4.0908">
        <ele>654.7</ele>
        <time>2026-02-26T10:02:56.125Z</time>
      </trkpt>
      <trkpt lat="45.30025" lon="4.09119">
        <ele>652.1</ele>
        <time>2026-02-26T10:03:00.071Z</time>
      </trkpt>
      <trkpt lat="45.3004" lon="4.09178">
        <ele>645.3</ele>
        <time>2026-02-26T10:03:05.078Z</time>
      </trkpt>
      <trkpt lat="45.30018" lon="4.09211">
        <ele>635.2</ele>
        <time>2026-02-26T10:03:08.725Z</time>
      </trkpt>
      <trkpt lat="45.30016" lon="4.09284">
        <ele>619.2</ele>
        <time>2026-02-26T10:03:14.589Z</time>
      </trkpt>
      <trkpt lat="45.30037" lon="4.09337">
        <ele>610.7</ele>
        <time>2026-02-26T10:03:19.475Z</time>
      </trkpt>
      <trkpt lat="45.29999" lon="4.0936">
        <ele>598.2</ele>
        <time>2026-02-26T10:03:24.191Z</time>
      </trkpt>
      <trkpt lat="45.29959" lon="4.09359">
        <ele>592.8</ele>
        <time>2026-02-26T10:03:28.702Z</time>
      </trkpt>
      <trkpt lat="45.29946" lon="4.09305">
        <ele>602.7</ele>
        <time>2026-02-26T10:03:33.242Z</time>
      </trkpt>
      <trkpt lat="45.29937" lon="4.09279">
        <ele>606.8</ele>
        <time>2026-02-26T10:03:35.474Z</time>
      </trkpt>
      <trkpt lat="45.29926" lon="4.09267">
        <ele>607.4</ele>
        <time>2026-02-26T10:03:37.069Z</time>
      </trkpt>
      <trkpt lat="45.29868" lon="4.09301">
        <ele>595.9</ele>
        <time>2026-02-26T10:03:44.165Z</time>
      </trkpt>
      <trkpt lat="45.29823" lon="4.09351">
        <ele>583.5</ele>
        <time>2026-02-26T10:03:50.653Z</time>
      </trkpt>
      <trkpt lat="45.29756" lon="4.09402">
        <ele>572.8</ele>
        <time>2026-02-26T10:03:59.033Z</time>
      </trkpt>
      <trkpt lat="45.29704" lon="4.09398">
        <ele>571.9</ele>
        <time>2026-02-26T10:04:04.826Z</time>
      </trkpt>
      <trkpt lat="45.29674" lon="4.0938">
        <ele>575.1</ele>
        <time>2026-02-26T10:04:08.423Z</time>
      </trkpt>
      <trkpt lat="45.29629" lon="4.09382">
        <ele>574.6</ele>
        <time>2026-02-26T10:04:13.480Z</time>
      </trkpt>
      <trkpt lat="45.29557" lon="4.09483">
        <ele>557.3</ele>
        <time>2026-02-26T10:04:24.894Z</time>
      </trkpt>
      <trkpt lat="45.29525" lon="4.09398">
        <ele>564.2</ele>
        <time>2026-02-26T10:04:32.441Z</time>
      </trkpt>
      <trkpt lat="45.29486" lon="4.09291">
        <ele>574.5</ele>
        <time>2026-02-26T10:04:41.970Z</time>
      </trkpt>
      <trkpt lat="45.29383" lon="4.09197">
        <ele>578</ele>
        <time>2026-02-26T10:04:55.605Z</time>
      </trkpt>
      <trkpt lat="45.29384" lon="4.09144">
        <ele>588.1</ele>
        <time>2026-02-26T10:04:59.797Z</time>
      </trkpt>
      <trkpt lat="45.29414" lon="4.0904">
        <ele>604.7</ele>
        <time>2026-02-26T10:05:08.603Z</time>
      </trkpt>
      <trkpt lat="45.29452" lon="4.08989">
        <ele>609.8</ele>
        <time>2026-02-26T10:05:14.362Z</time>
      </trkpt>
      <trkpt lat="45.29484" lon="4.08943">
        <ele>606.2</ele>
        <time>2026-02-26T10:05:19.648Z</time>
      </trkpt>
      <trkpt lat="45.2957" lon="4.08901">
        <ele>612.6</ele>
        <time>2026-02-26T10:05:29.776Z</time>
      </trkpt>
      <trkpt lat="45.29627" lon="4.0887">
        <ele>620.9</ele>
        <time>2026-02-26T10:05:36.575Z</time>
      </trkpt>
      <trkpt lat="45.29687" lon="4.08838">
        <ele>635.9</ele>
        <time>2026-02-26T10:05:43.841Z</time>
      </trkpt>
      <trkpt lat="45.29725" lon="4.08785">
        <ele>634.6</ele>
        <time>2026-02-26T10:05:49.761Z</time>
      </trkpt>
      <trkpt lat="45.29773" lon="4.08706">
        <ele>632.3</ele>
        <time>2026-02-26T10:05:57.882Z</time>
      </trkpt>
      <trkpt lat="45.29827" lon="4.08662">
        <ele>645.1</ele>
        <time>2026-02-26T10:06:04.980Z</time>
      </trkpt>
      <trkpt lat="45.29864" lon="4.08676">
        <ele>661.3</ele>
        <time>2026-02-26T10:06:09.583Z</time>
      </trkpt>
      <trkpt lat="45.29853" lon="4.08606">
        <ele>646.2</ele>
        <time>2026-02-26T10:06:15.517Z</time>
      </trkpt>
      <trkpt lat="45.29888" lon="4.08538">
        <ele>640.3</ele>
        <time>2026-02-26T10:06:22.067Z</time>
      </trkpt>
      <trkpt lat="45.29919" lon="4.08465">
        <ele>627.8</ele>
        <time>2026-02-26T10:06:28.839Z</time>
      </trkpt>
      <trkpt lat="45.29949" lon="4.08419">
        <ele>622.9</ele>
        <time>2026-02-26T10:06:33.791Z</time>
      </trkpt>
      <trkpt lat="45.30003" lon="4.08421">
        <ele>637.8</ele>
        <time>2026-02-26T10:06:39.901Z</time>
      </trkpt>
      <trkpt lat="45.30002" lon="4.08396">
        <ele>631.8</ele>
        <time>2026-02-26T10:06:41.962Z</time>
      </trkpt>
      <trkpt lat="45.30039" lon="4.08369">
        <ele>636.4</ele>
        <time>2026-02-26T10:06:46.650Z</time>
      </trkpt>
      <trkpt lat="45.30091" lon="4.08329">
        <ele>648.1</ele>
        <time>2026-02-26T10:06:53.227Z</time>
      </trkpt>
      <trkpt lat="45.30088" lon="4.0826">
        <ele>630</ele>
        <time>2026-02-26T10:06:58.747Z</time>
      </trkpt>
      <trkpt lat="45.30111" lon="4.0816">
        <ele>623.9</ele>
        <time>2026-02-26T10:07:07.032Z</time>
      </trkpt>
      <trkpt lat="45.30053" lon="4.0824">
        <ele>617</ele>
        <time>2026-02-26T10:07:16.113Z</time>
      </trkpt>
      <trkpt lat="45.29973" lon="4.08258">
        <ele>595.4</ele>
        <time>2026-02-26T10:07:25.341Z</time>
      </trkpt>
      <trkpt lat="45.29925" lon="4.08312">
        <ele>593.1</ele>
        <time>2026-02-26T10:07:32.182Z</time>
      </trkpt>
      <trkpt lat="45.29873" lon="4.08329">
        <ele>583.1</ele>
        <time>2026-02-26T10:07:38.117Z</time>
      </trkpt>
      <trkpt lat="45.29837" lon="4.08366">
        <ele>584.5</ele>
        <time>2026-02-26T10:07:43.049Z</time>
      </trkpt>
      <trkpt lat="45.29805" lon="4.08445">
        <ele>594.8</ele>
        <time>2026-02-26T10:07:50.166Z</time>
      </trkpt>
      <trkpt lat="45.29778" lon="4.08609">
        <ele>615.8</ele>
        <time>2026-02-26T10:08:03.403Z</time>
      </trkpt>
      <trkpt lat="45.29704" lon="4.0869">
        <ele>606.3</ele>
        <time>2026-02-26T10:08:14.004Z</time>
      </trkpt>
      <trkpt lat="45.29659" lon="4.08757">
        <ele>605.3</ele>
        <time>2026-02-26T10:08:21.255Z</time>
      </trkpt>
      <trkpt lat="45.29563" lon="4.08798">
        <ele>576.9</ele>
        <time>2026-02-26T10:08:32.453Z</time>
      </trkpt>
      <trkpt lat="45.29465" lon="4.08789">
        <ele>549.4</ele>
        <time>2026-02-26T10:08:43.374Z</time>
      </trkpt>
      <trkpt lat="45.29436" lon="4.08788">
        <ele>544.7</ele>
        <time>2026-02-26T10:08:46.650Z</time>
      </trkpt>
      <trkpt lat="45.29354" lon="4.08829">
        <ele>547.2</ele>
        <time>2026-02-26T10:08:56.335Z</time>
      </trkpt>
      <trkpt lat="45.29287" lon="4.08807">
        <ele>531</ele>
        <time>2026-02-26T10:09:04.063Z</time>
      </trkpt>
      <trkpt lat="45.292" lon="4.08875">
        <ele>526.1</ele>
        <time>2026-02-26T10:09:15.089Z</time>
      </trkpt>
      <trkpt lat="45.29128" lon="4.08938">
        <ele>530</ele>
        <time>2026-02-26T10:09:24.586Z</time>
      </trkpt>
      <trkpt lat="45.29052" lon="4.08923">
        <ele>551.8</ele>
        <time>2026-02-26T10:09:33.389Z</time>
      </trkpt>
      <trkpt lat="45.29001" lon="4.08923">
        <ele>562.9</ele>
        <time>2026-02-26T10:09:39.146Z</time>
      </trkpt>
      <trkpt lat="45.28954" lon="4.08871">
        <ele>577.9</ele>
        <time>2026-02-26T10:09:45.768Z</time>
      </trkpt>
      <trkpt lat="45.28992" lon="4.08792">
        <ele>588.9</ele>
        <time>2026-02-26T10:09:53.376Z</time>
      </trkpt>
      <trkpt lat="45.29037" lon="4.08718">
        <ele>596.9</ele>
        <time>2026-02-26T10:10:01.076Z</time>
      </trkpt>
      <trkpt lat="45.29055" lon="4.08651">
        <ele>604.2</ele>
        <time>2026-02-26T10:10:06.797Z</time>
      </trkpt>
      <trkpt lat="45.29075" lon="4.0861">
        <ele>606.2</ele>
        <time>2026-02-26T10:10:10.798Z</time>
      </trkpt>
      <trkpt lat="45.29113" lon="4.08553">
        <ele>607.8</ele>
        <time>2026-02-26T10:10:16.916Z</time>
      </trkpt>
      <trkpt lat="45.29138" lon="4.08511">
        <ele>613.6</ele>
        <time>2026-02-26T10:10:21.219Z</time>
      </trkpt>
      <trkpt lat="45.29173" lon="4.08453">
        <ele>620.8</ele>
        <time>2026-02-26T10:10:27.188Z</time>
      </trkpt>
      <trkpt lat="45.29178" lon="4.08435">
        <ele>624.6</ele>
        <time>2026-02-26T10:10:28.812Z</time>
      </trkpt>
      <trkpt lat="45.29182" lon="4.08408">
        <ele>630.9</ele>
        <time>2026-02-26T10:10:31.032Z</time>
      </trkpt>
      <trkpt lat="45.29221" lon="4.08347">
        <ele>636</ele>
        <time>2026-02-26T10:10:37.446Z</time>
      </trkpt>
      <trkpt lat="45.29221" lon="4.08301">
        <ele>638.5</ele>
        <time>2026-02-26T10:10:41.078Z</time>
      </trkpt>
      <trkpt lat="45.29217" lon="4.08245">
        <ele>641</ele>
        <time>2026-02-26T10:10:45.493Z</time>
      </trkpt>
      <trkpt lat="45.292" lon="4.08109">
        <ele>646.8</ele>
        <time>2026-02-26T10:10:56.289Z</time>
      </trkpt>
      <trkpt lat="45.29208" lon="4.07991">
        <ele>656.6</ele>
        <time>2026-02-26T10:11:05.651Z</time>
      </trkpt>
      <trkpt lat="45.29239" lon="4.07876">
        <ele>664.1</ele>
        <time>2026-02-26T10:11:15.307Z</time>
      </trkpt>
      <trkpt lat="45.29265" lon="4.07814">
        <ele>666.7</ele>
        <time>2026-02-26T10:11:20.971Z</time>
      </trkpt>
      <trkpt lat="45.2931" lon="4.0776">
        <ele>667.4</ele>
        <time>2026-02-26T10:11:27.548Z</time>
      </trkpt>
      <trkpt lat="45.29342" lon="4.07719">
        <ele>670.1</ele>
        <time>2026-02-26T10:11:32.372Z</time>
      </trkpt>
      <trkpt lat="45.29373" lon="4.07643">
        <ele>681.1</ele>
        <time>2026-02-26T10:11:39.251Z</time>
      </trkpt>
      <trkpt lat="45.29394" lon="4.07587">
        <ele>692.2</ele>
        <time>2026-02-26T10:11:44.293Z</time>
      </trkpt>
      <trkpt lat="45.29414" lon="4.07564">
        <ele>696</ele>
        <time>2026-02-26T10:11:47.161Z</time>
      </trkpt>
      <trkpt lat="45.29421" lon="4.07507">
        <ele>702.3</ele>
        <time>2026-02-26T10:11:51.816Z</time>
      </trkpt>
      <trkpt lat="45.29508" lon="4.07564">
        <ele>711.3</ele>
        <time>2026-02-26T10:12:02.470Z</time>
      </trkpt>
      <trkpt lat="45.29585" lon="4.07535">
        <ele>722.9</ele>
        <time>2026-02-26T10:12:11.549Z</time>
      </trkpt>
      <trkpt lat="45.29619" lon="4.07518">
        <ele>724.6</ele>
        <time>2026-02-26T10:12:15.577Z</time>
      </trkpt>
      <trkpt lat="45.29663" lon="4.07514">
        <ele>708.7</ele>
        <time>2026-02-26T10:12:20.422Z</time>
      </trkpt>
      <trkpt lat="45.29689" lon="4.07509">
        <ele>699.3</ele>
        <time>2026-02-26T10:12:23.473Z</time>
      </trkpt>
      <trkpt lat="45.29718" lon="4.07513">
        <ele>686.5</ele>
        <time>2026-02-26T10:12:26.851Z</time>
      </trkpt>
      <trkpt lat="45.29733" lon="4.07463">
        <ele>685.9</ele>
        <time>2026-02-26T10:12:31.117Z</time>
      </trkpt>
      <trkpt lat="45.29749" lon="4.0743">
        <ele>682.7</ele>
        <time>2026-02-26T10:12:34.263Z</time>
      </trkpt>
      <trkpt lat="45.29738" lon="4.07367">
        <ele>689.8</ele>
        <time>2026-02-26T10:12:39.381Z</time>
      </trkpt>
      <trkpt lat="45.29727" lon="4.07316">
        <ele>697.6</ele>
        <time>2026-02-26T10:12:43.629Z</time>
      </trkpt>
      <trkpt lat="45.2972" lon="4.07278">
        <ele>704.1</ele>
        <time>2026-02-26T10:12:46.748Z</time>
      </trkpt>
      <trkpt lat="45.29749" lon="4.07239">
        <ele>697.1</ele>
        <time>2026-02-26T10:12:51.203Z</time>
      </trkpt>
      <trkpt lat="45.29772" lon="4.07225">
        <ele>691.4</ele>
        <time>2026-02-26T10:12:53.967Z</time>
      </trkpt>
      <trkpt lat="45.29787" lon="4.072">
        <ele>691.3</ele>
        <time>2026-02-26T10:12:56.585Z</time>
      </trkpt>
      <trkpt lat="45.29788" lon="4.07168">
        <ele>696.9</ele>
        <time>2026-02-26T10:12:59.055Z</time>
      </trkpt>
      <trkpt lat="45.29814" lon="4.07145">
        <ele>694</ele>
        <time>2026-02-26T10:13:02.504Z</time>
      </trkpt>
      <trkpt lat="45.29852" lon="4.07139">
        <ele>685.6</ele>
        <time>2026-02-26T10:13:06.876Z</time>
      </trkpt>
      <trkpt lat="45.2986" lon="4.07108">
        <ele>686.4</ele>
        <time>2026-02-26T10:13:09.501Z</time>
      </trkpt>
      <trkpt lat="45.298" lon="4.07044">
        <ele>701.7</ele>
        <time>2026-02-26T10:13:17.875Z</time>
      </trkpt>
      <trkpt lat="45.2974" lon="4.07002">
        <ele>713.8</ele>
        <time>2026-02-26T10:13:25.384Z</time>
      </trkpt>
      <trkpt lat="45.29706" lon="4.06984">
        <ele>719.1</ele>
        <time>2026-02-26T10:13:29.436Z</time>
      </trkpt>
      <trkpt lat="45.29665" lon="4.06946">
        <ele>726.1</ele>
        <time>2026-02-26T10:13:34.925Z</time>
      </trkpt>
      <trkpt lat="45.296" lon="4.06944">
        <ele>740.4</ele>
        <time>2026-02-26T10:13:42.150Z</time>
      </trkpt>
      <trkpt lat="45.29573" lon="4.06948">
        <ele>744.1</ele>
        <time>2026-02-26T10:13:45.279Z</time>
      </trkpt>
      <trkpt lat="45.29573" lon="4.06934">
        <ele>742.7</ele>
        <time>2026-02-26T10:13:46.431Z</time>
      </trkpt>
      <trkpt lat="45.29526" lon="4.069">
        <ele>744.9</ele>
        <time>2026-02-26T10:13:52.349Z</time>
      </trkpt>
      <trkpt lat="45.29509" lon="4.06805">
        <ele>736.9</ele>
        <time>2026-02-26T10:13:59.979Z</time>
      </trkpt>
      <trkpt lat="45.29464" lon="4.06933">
        <ele>744.3</ele>
        <time>2026-02-26T10:14:11.128Z</time>
      </trkpt>
      <trkpt lat="45.29421" lon="4.06898">
        <ele>738.9</ele>
        <time>2026-02-26T10:14:16.656Z</time>
      </trkpt>
      <trkpt lat="45.29389" lon="4.06803">
        <ele>736.5</ele>
        <time>2026-02-26T10:14:24.928Z</time>
      </trkpt>
      <trkpt lat="45.29384" lon="4.06685">
        <ele>742.1</ele>
        <time>2026-02-26T10:14:34.212Z</time>
      </trkpt>
      <trkpt lat="45.29352" lon="4.06625">
        <ele>746.5</ele>
        <time>2026-02-26T10:14:40.055Z</time>
      </trkpt>
      <trkpt lat="45.29331" lon="4.06514">
        <ele>750.2</ele>
        <time>2026-02-26T10:14:49.043Z</time>
      </trkpt>
      <trkpt lat="45.29302" lon="4.06409">
        <ele>745.2</ele>
        <time>2026-02-26T10:14:57.901Z</time>
      </trkpt>
      <trkpt lat="45.29233" lon="4.06372">
        <ele>732.5</ele>
        <time>2026-02-26T10:15:06.228Z</time>
      </trkpt>
      <trkpt lat="45.29153" lon="4.06365">
        <ele>731.2</ele>
        <time>2026-02-26T10:15:15.166Z</time>
      </trkpt>
      <trkpt lat="45.29108" lon="4.06335">
        <ele>728.7</ele>
        <time>2026-02-26T10:15:20.787Z</time>
      </trkpt>
      <trkpt lat="45.29088" lon="4.06303">
        <ele>718.9</ele>
        <time>2026-02-26T10:15:24.284Z</time>
      </trkpt>
      <trkpt lat="45.29033" lon="4.06292">
        <ele>713.2</ele>
        <time>2026-02-26T10:15:30.538Z</time>
      </trkpt>
      <trkpt lat="45.2897" lon="4.06345">
        <ele>716.4</ele>
        <time>2026-02-26T10:15:38.665Z</time>
      </trkpt>
      <trkpt lat="45.28989" lon="4.06407">
        <ele>732.5</ele>
        <time>2026-02-26T10:15:44.008Z</time>
      </trkpt>
      <trkpt lat="45.28988" lon="4.06455">
        <ele>738.3</ele>
        <time>2026-02-26T10:15:47.813Z</time>
      </trkpt>
      <trkpt lat="45.28944" lon="4.0658">
        <ele>738.5</ele>
        <time>2026-02-26T10:15:58.769Z</time>
      </trkpt>
      <trkpt lat="45.28902" lon="4.06644">
        <ele>731.4</ele>
        <time>2026-02-26T10:16:05.618Z</time>
      </trkpt>
      <trkpt lat="45.28892" lon="4.06677">
        <ele>732</ele>
        <time>2026-02-26T10:16:08.421Z</time>
      </trkpt>
      <trkpt lat="45.2891" lon="4.06696">
        <ele>733.8</ele>
        <time>2026-02-26T10:16:10.932Z</time>
      </trkpt>
      <trkpt lat="45.28907" lon="4.06831">
        <ele>721.9</ele>
        <time>2026-02-26T10:16:21.611Z</time>
      </trkpt>
      <trkpt lat="45.28923" lon="4.06919">
        <ele>703.9</ele>
        <time>2026-02-26T10:16:28.706Z</time>
      </trkpt>
      <trkpt lat="45.2895" lon="4.06985">
        <ele>696.2</ele>
        <time>2026-02-26T10:16:34.833Z</time>
      </trkpt>
      <trkpt lat="45.29005" lon="4.07015">
        <ele>698.7</ele>
        <time>2026-02-26T10:16:41.449Z</time>
      </trkpt>
      <trkpt lat="45.29023" lon="4.07096">
        <ele>704.6</ele>
        <time>2026-02-26T10:16:48.132Z</time>
      </trkpt>
      <trkpt lat="45.28963" lon="4.07135">
        <ele>702.4</ele>
        <time>2026-02-26T10:16:55.553Z</time>
      </trkpt>
      <trkpt lat="45.28926" lon="4.07165">
        <ele>704.1</ele>
        <time>2026-02-26T10:17:00.194Z</time>
      </trkpt>
      <trkpt lat="45.28923" lon="4.0729">
        <ele>701.9</ele>
        <time>2026-02-26T10:17:10.070Z</time>
      </trkpt>
      <trkpt lat="45.28932" lon="4.07357">
        <ele>697.6</ele>
        <time>2026-02-26T10:17:15.420Z</time>
      </trkpt>
      <trkpt lat="45.28959" lon="4.074">
        <ele>693.6</ele>
        <time>2026-02-26T10:17:19.872Z</time>
      </trkpt>
      <trkpt lat="45.28997" lon="4.07443">
        <ele>687</ele>
        <time>2026-02-26T10:17:25.344Z</time>
      </trkpt>
      <trkpt lat="45.28989" lon="4.07574">
        <ele>672.6</ele>
        <time>2026-02-26T10:17:35.692Z</time>
      </trkpt>
      <trkpt lat="45.2894" lon="4.07708">
        <ele>661.9</ele>
        <time>2026-02-26T10:17:47.599Z</time>
      </trkpt>
      <trkpt lat="45.28898" lon="4.07816">
        <ele>655.8</ele>
        <time>2026-02-26T10:17:57.210Z</time>
      </trkpt>
      <trkpt lat="45.28832" lon="4.07858">
        <ele>654</ele>
        <time>2026-02-26T10:18:05.345Z</time>
      </trkpt>
      <trkpt lat="45.28778" lon="4.07912">
        <ele>654.5</ele>
        <time>2026-02-26T10:18:12.684Z</time>
      </trkpt>
      <trkpt lat="45.28759" lon="4.07951">
        <ele>650.6</ele>
        <time>2026-02-26T10:18:16.372Z</time>
      </trkpt>
      <trkpt lat="45.28703" lon="4.07981">
        <ele>654.1</ele>
        <time>2026-02-26T10:18:23.049Z</time>
      </trkpt>
      <trkpt lat="45.28676" lon="4.07985">
        <ele>656</ele>
        <time>2026-02-26T10:18:26.018Z</time>
      </trkpt>
      <trkpt lat="45.28658" lon="4.08002">
        <ele>655.6</ele>
        <time>2026-02-26T10:18:28.391Z</time>
      </trkpt>
      <trkpt lat="45.28606" lon="4.07967">
        <ele>662.5</ele>
        <time>2026-02-26T10:18:34.833Z</time>
      </trkpt>
      <trkpt lat="45.28534" lon="4.07949">
        <ele>660.6</ele>
        <time>2026-02-26T10:18:43.029Z</time>
      </trkpt>
      <trkpt lat="45.28529" lon="4.0792">
        <ele>661.8</ele>
        <time>2026-02-26T10:18:45.360Z</time>
      </trkpt>
      <trkpt lat="45.28455" lon="4.07956">
        <ele>647.3</ele>
        <time>2026-02-26T10:18:54.101Z</time>
      </trkpt>
      <trkpt lat="45.28416" lon="4.07952">
        <ele>640.8</ele>
        <time>2026-02-26T10:18:58.507Z</time>
      </trkpt>
      <trkpt lat="45.28393" lon="4.07979">
        <ele>636.2</ele>
        <time>2026-02-26T10:19:01.838Z</time>
      </trkpt>
      <trkpt lat="45.28419" lon="4.07996">
        <ele>640</ele>
        <time>2026-02-26T10:19:05.069Z</time>
      </trkpt>
      <trkpt lat="45.28408" lon="4.08114">
        <ele>633</ele>
        <time>2026-02-26T10:19:14.427Z</time>
      </trkpt>
      <trkpt lat="45.28431" lon="4.08212">
        <ele>631.8</ele>
        <time>2026-02-26T10:19:22.510Z</time>
      </trkpt>
      <trkpt lat="45.28431" lon="4.08265">
        <ele>627.8</ele>
        <time>2026-02-26T10:19:26.670Z</time>
      </trkpt>
      <trkpt lat="45.28452" lon="4.08375">
        <ele>617.9</ele>
        <time>2026-02-26T10:19:35.592Z</time>
      </trkpt>
      <trkpt lat="45.28518" lon="4.08514">
        <ele>602.3</ele>
        <time>2026-02-26T10:19:48.761Z</time>
      </trkpt>
      <trkpt lat="45.28564" lon="4.08591">
        <ele>595.1</ele>
        <time>2026-02-26T10:19:56.721Z</time>
      </trkpt>
      <trkpt lat="45.28617" lon="4.08612">
        <ele>593.2</ele>
        <time>2026-02-26T10:20:02.871Z</time>
      </trkpt>
      <trkpt lat="45.28657" lon="4.08625">
        <ele>588.5</ele>
        <time>2026-02-26T10:20:07.374Z</time>
      </trkpt>
      <trkpt lat="45.28689" lon="4.08725">
        <ele>577.5</ele>
        <time>2026-02-26T10:20:16.070Z</time>
      </trkpt>
      <trkpt lat="45.28694" lon="4.08834">
        <ele>578.5</ele>
        <time>2026-02-26T10:20:24.716Z</time>
      </trkpt>
      <trkpt lat="45.28686" lon="4.08911">
        <ele>575.7</ele>
        <time>2026-02-26T10:20:30.766Z</time>
      </trkpt>
      <trkpt lat="45.2869" lon="4.08991">
        <ele>566</ele>
        <time>2026-02-26T10:20:37.125Z</time>
      </trkpt>
      <trkpt lat="45.28711" lon="4.09163">
        <ele>541.6</ele>
        <time>2026-02-26T10:20:50.831Z</time>
      </trkpt>
      <trkpt lat="45.28725" lon="4.09233">
        <ele>535.1</ele>
        <time>2026-02-26T10:20:56.553Z</time>
      </trkpt>
      <trkpt lat="45.28759" lon="4.09296">
        <ele>525.4</ele>
        <time>2026-02-26T10:21:02.837Z</time>
      </trkpt>
      <trkpt lat="45.28838" lon="4.0936">
        <ele>512.6</ele>
        <time>2026-02-26T10:21:13.099Z</time>
      </trkpt>
      <trkpt lat="45.28869" lon="4.09396">
        <ele>514.6</ele>
        <time>2026-02-26T10:21:17.514Z</time>
      </trkpt>
      <trkpt lat="45.28877" lon="4.0942">
        <ele>518.9</ele>
        <time>2026-02-26T10:21:19.612Z</time>
      </trkpt>
      <trkpt lat="45.28877" lon="4.09474">
        <ele>520.4</ele>
        <time>2026-02-26T10:21:23.915Z</time>
      </trkpt>
      <trkpt lat="45.28868" lon="4.09535">
        <ele>517.2</ele>
        <time>2026-02-26T10:21:28.715Z</time>
      </trkpt>
      <trkpt lat="45.28876" lon="4.09609">
        <ele>512.9</ele>
        <time>2026-02-26T10:21:34.583Z</time>
      </trkpt>
      <trkpt lat="45.28909" lon="4.09598">
        <ele>518</ele>
        <time>2026-02-26T10:21:38.328Z</time>
      </trkpt>
      <trkpt lat="45.28928" lon="4.09727">
        <ele>509.4</ele>
        <time>2026-02-26T10:21:48.605Z</time>
      </trkpt>
      <trkpt lat="45.28928" lon="4.09788">
        <ele>511.7</ele>
        <time>2026-02-26T10:21:53.389Z</time>
      </trkpt>
      <trkpt lat="45.28948" lon="4.09825">
        <ele>515.8</ele>
        <time>2026-02-26T10:21:57.122Z</time>
      </trkpt>
      <trkpt lat="45.2895" lon="4.09877">
        <ele>524</ele>
        <time>2026-02-26T10:22:01.237Z</time>
      </trkpt>
      <trkpt lat="45.28903" lon="4.09989">
        <ele>542.1</ele>
        <time>2026-02-26T10:22:11.555Z</time>
      </trkpt>
      <trkpt lat="45.28873" lon="4.1009">
        <ele>547.1</ele>
        <time>2026-02-26T10:22:20.188Z</time>
      </trkpt>
      <trkpt lat="45.28842" lon="4.10174">
        <ele>539.5</ele>
        <time>2026-02-26T10:22:27.614Z</time>
      </trkpt>
      <trkpt lat="45.28886" lon="4.10218">
        <ele>542</ele>
        <time>2026-02-26T10:22:33.654Z</time>
      </trkpt>
      <trkpt lat="45.28927" lon="4.10341">
        <ele>536</ele>
        <time>2026-02-26T10:22:44.277Z</time>
      </trkpt>
      <trkpt lat="45.28982" lon="4.10424">
        <ele>528.9</ele>
        <time>2026-02-26T10:22:53.237Z</time>
      </trkpt>
      <trkpt lat="45.29" lon="4.10495">
        <ele>516</ele>
        <time>2026-02-26T10:22:59.182Z</time>
      </trkpt>
      <trkpt lat="45.29039" lon="4.10533">
        <ele>508.6</ele>
        <time>2026-02-26T10:23:04.418Z</time>
      </trkpt>
      <trkpt lat="45.29099" lon="4.10564">
        <ele>503.9</ele>
        <time>2026-02-26T10:23:11.584Z</time>
      </trkpt>
      <trkpt lat="45.29175" lon="4.10583">
        <ele>503</ele>
        <time>2026-02-26T10:23:20.198Z</time>
      </trkpt>
      <trkpt lat="45.29253" lon="4.1059">
        <ele>505</ele>
        <time>2026-02-26T10:23:28.867Z</time>
      </trkpt>
      <trkpt lat="45.2932" lon="4.1058">
        <ele>506.2</ele>
        <time>2026-02-26T10:23:36.300Z</time>
      </trkpt>
      <trkpt lat="45.29383" lon="4.10608">
        <ele>506.4</ele>
        <time>2026-02-26T10:23:43.640Z</time>
      </trkpt>
      <trkpt lat="45.2946" lon="4.10625">
        <ele>505.3</ele>
        <time>2026-02-26T10:23:52.367Z</time>
      </trkpt>
      <trkpt lat="45.29531" lon="4.10651">
        <ele>501.7</ele>
        <time>2026-02-26T10:24:00.480Z</time>
      </trkpt>
      <trkpt lat="45.29584" lon="4.10664">
        <ele>495</ele>
        <time>2026-02-26T10:24:06.447Z</time>
      </trkpt>
      <trkpt lat="45.29664" lon="4.10667">
        <ele>487</ele>
        <time>2026-02-26T10:24:15.395Z</time>
      </trkpt>
      <trkpt lat="45.297" lon="4.10722">
        <ele>480.2</ele>
        <time>2026-02-26T10:24:21.282Z</time>
      </trkpt>
      <trkpt lat="45.2981" lon="4.10706">
        <ele>472.8</ele>
        <time>2026-02-26T10:24:33.689Z</time>
      </trkpt>
      <trkpt lat="45.29885" lon="4.10699">
        <ele>470.7</ele>
        <time>2026-02-26T10:24:41.986Z</time>
      </trkpt>
      <trkpt lat="45.29926" lon="4.10705">
        <ele>469.8</ele>
        <time>2026-02-26T10:24:46.675Z</time>
      </trkpt>
      <trkpt lat="45.30009" lon="4.10707">
        <ele>469.7</ele>
        <time>2026-02-26T10:24:55.800Z</time>
      </trkpt>
      <trkpt lat="45.30049" lon="4.10749">
        <ele>468.3</ele>
        <time>2026-02-26T10:25:01.381Z</time>
      </trkpt>
      <trkpt lat="45.30068" lon="4.10794">
        <ele>466.6</ele>
        <time>2026-02-26T10:25:05.520Z</time>
      </trkpt>
      <trkpt lat="45.30102" lon="4.10825">
        <ele>465.5</ele>
        <time>2026-02-26T10:25:09.985Z</time>
      </trkpt>
      <trkpt lat="45.30106" lon="4.10887">
        <ele>463.3</ele>
        <time>2026-02-26T10:25:14.906Z</time>
      </trkpt>
      <trkpt lat="45.30041" lon="4.10996">
        <ele>461</ele>
        <time>2026-02-26T10:25:26.014Z</time>
      </trkpt>
      <trkpt lat="45.30055" lon="4.11116">
        <ele>457.7</ele>
        <time>2026-02-26T10:25:35.592Z</time>
      </trkpt>
      <trkpt lat="45.30024" lon="4.11149">
        <ele>456.8</ele>
        <time>2026-02-26T10:25:39.939Z</time>
      </trkpt>
      <trkpt lat="45.3004" lon="4.1128">
        <ele>453.3</ele>
        <time>2026-02-26T10:25:50.307Z</time>
      </trkpt>
      <trkpt lat="45.30085" lon="4.11422">
        <ele>449</ele>
        <time>2026-02-26T10:26:02.553Z</time>
      </trkpt>
      <trkpt lat="45.30187" lon="4.11412">
        <ele>448.5</ele>
        <time>2026-02-26T10:26:13.823Z</time>
      </trkpt>
      <trkpt lat="45.30257" lon="4.11423">
        <ele>447.3</ele>
        <time>2026-02-26T10:26:21.676Z</time>
      </trkpt>
      <trkpt lat="45.3028" lon="4.11409">
        <ele>447.3</ele>
        <time>2026-02-26T10:26:24.502Z</time>
      </trkpt>
      <trkpt lat="45.30294" lon="4.11501">
        <ele>445.8</ele>
        <time>2026-02-26T10:26:31.852Z</time>
      </trkpt>
      <trkpt lat="45.30322" lon="4.11503">
        <ele>445.1</ele>
        <time>2026-02-26T10:26:35.022Z</time>
      </trkpt>
      <trkpt lat="45.30342" lon="4.11513">
        <ele>444.4</ele>
        <time>2026-02-26T10:26:37.335Z</time>
      </trkpt>
      <trkpt lat="45.30425" lon="4.11504">
        <ele>444.1</ele>
        <time>2026-02-26T10:26:46.585Z</time>
      </trkpt>
      <trkpt lat="45.30483" lon="4.11469">
        <ele>444.3</ele>
        <time>2026-02-26T10:26:53.604Z</time>
      </trkpt>
      <trkpt lat="45.30526" lon="4.11452">
        <ele>443.1</ele>
        <time>2026-02-26T10:26:58.589Z</time>
      </trkpt>
      <trkpt lat="45.30548" lon="4.11501">
        <ele>443.2</ele>
        <time>2026-02-26T10:27:03.139Z</time>
      </trkpt>
      <trkpt lat="45.30597" lon="4.11499">
        <ele>443.7</ele>
        <time>2026-02-26T10:27:08.582Z</time>
      </trkpt>
    </trkseg>
  </trk>
</gpx>